sensor_id;sensor_type;location;lat;lon;timestamp;P1;P2;P0
44980;PMS5003;67464;52.438;-1.904;2023-04-01T00:01:19;22;20;
44980;PMS5003;67464;52.438;-1.904;2023-04-01T00:03:45;25;22;
44980;PMS5003;67464;52.438;-1.904;2023-04-01T00:06:11;19;18;
44980;PMS5003;67464;52.438;-1.904;2023-04-01T00:08:36;15;13;
44980;PMS5003;67464;52.438;-1.904;2023-04-01T00:11:01;18;15;
44980;PMS5003;67464;52.438;-1.904;2023-04-01T00:13:26;23;23;
44980;PMS5003;67464;52.438;-1.904;2023-04-01T00:15:51;21;19;
44980;PMS5003;67464;52.438;-1.904;2023-04-01T00:18:16;17;14;
44980;PMS5003;67464;52.438;-1.904;2023-04-01T00:20:43;31;19;
44980;PMS5003;67464;52.438;-1.904;2023-04-01T00:23:07;16;14;
44980;PMS5003;67464;52.438;-1.904;2023-04-01T00:25:32;22;17;
44980;PMS5003;67464;52.438;-1.904;2023-04-01T00:27:57;15;14;
44980;PMS5003;67464;52.438;-1.904;2023-04-01T00:30:23;6;6;
44980;PMS5003;67464;52.438;-1.904;2023-04-01T00:32:51;11;11;
44980;PMS5003;67464;52.438;-1.904;2023-04-01T00:35:13;11;11;
44980;PMS5003;67464;52.438;-1.904;2023-04-01T00:37:39;18;16;
44980;PMS5003;67464;52.438;-1.904;2023-04-01T00:40:06;14;14;
44980;PMS5003;67464;52.438;-1.904;2023-04-01T00:42:30;19;19;
44980;PMS5003;67464;52.438;-1.904;2023-04-01T00:44:55;22;22;
44980;PMS5003;67464;52.438;-1.904;2023-04-01T00:47:20;22;20;
44980;PMS5003;67464;52.438;-1.904;2023-04-01T00:49:46;26;23;
44980;PMS5003;67464;52.438;-1.904;2023-04-01T00:52:12;18;17;
44980;PMS5003;67464;52.438;-1.904;2023-04-01T00:54:37;17;17;
44980;PMS5003;67464;52.438;-1.904;2023-04-01T00:57:04;16;16;
44980;PMS5003;67464;52.438;-1.904;2023-04-01T00:59:29;18;15;
44980;PMS5003;67464;52.438;-1.904;2023-04-01T01:01:53;26;23;
44980;PMS5003;67464;52.438;-1.904;2023-04-01T01:04:21;26;24;
44980;PMS5003;67464;52.438;-1.904;2023-04-01T01:06:46;21;17;
44980;PMS5003;67464;52.438;-1.904;2023-04-01T01:09:12;20;19;
44980;PMS5003;67464;52.438;-1.904;2023-04-01T01:11:36;22;20;
44980;PMS5003;67464;52.438;-1.904;2023-04-01T01:14:01;22;20;
44980;PMS5003;67464;52.438;-1.904;2023-04-01T01:16:25;21;20;
44980;PMS5003;67464;52.438;-1.904;2023-04-01T01:18:52;20;18;
44980;PMS5003;67464;52.438;-1.904;2023-04-01T01:21:21;20;17;
44980;PMS5003;67464;52.438;-1.904;2023-04-01T01:23:46;15;13;
44980;PMS5003;67464;52.438;-1.904;2023-04-01T01:26:14;21;20;
44980;PMS5003;67464;52.438;-1.904;2023-04-01T01:28:35;21;20;
44980;PMS5003;67464;52.438;-1.904;2023-04-01T01:30:58;22;21;
44980;PMS5003;67464;52.438;-1.904;2023-04-01T01:33:27;21;21;
44980;PMS5003;67464;52.438;-1.904;2023-04-01T01:35:49;20;17;
44980;PMS5003;67464;52.438;-1.904;2023-04-01T01:38:15;26;24;
44980;PMS5003;67464;52.438;-1.904;2023-04-01T01:40:41;19;17;
44980;PMS5003;67464;52.438;-1.904;2023-04-01T01:43:06;23;20;
44980;PMS5003;67464;52.438;-1.904;2023-04-01T01:45:30;12;12;
44980;PMS5003;67464;52.438;-1.904;2023-04-01T01:47:56;20;19;
44980;PMS5003;67464;52.438;-1.904;2023-04-01T01:50:21;16;16;
44980;PMS5003;67464;52.438;-1.904;2023-04-01T01:52:46;19;19;
44980;PMS5003;67464;52.438;-1.904;2023-04-01T01:57:37;19;17;
44980;PMS5003;67464;52.438;-1.904;2023-04-01T02:00:04;18;16;
44980;PMS5003;67464;52.438;-1.904;2023-04-01T02:02:28;20;20;
44980;PMS5003;67464;52.438;-1.904;2023-04-01T02:04:54;19;15;
44980;PMS5003;67464;52.438;-1.904;2023-04-01T02:07:21;19;19;
44980;PMS5003;67464;52.438;-1.904;2023-04-01T02:09:45;21;18;
44980;PMS5003;67464;52.438;-1.904;2023-04-01T02:12:12;25;20;
44980;PMS5003;67464;52.438;-1.904;2023-04-01T02:14:38;25;24;
44980;PMS5003;67464;52.438;-1.904;2023-04-01T02:17:03;26;24;
44980;PMS5003;67464;52.438;-1.904;2023-04-01T02:19:31;20;20;
44980;PMS5003;67464;52.438;-1.904;2023-04-01T02:21:54;19;16;
44980;PMS5003;67464;52.438;-1.904;2023-04-01T02:24:18;20;15;
44980;PMS5003;67464;52.438;-1.904;2023-04-01T02:26:44;21;19;
44980;PMS5003;67464;52.438;-1.904;2023-04-01T02:29:09;16;14;
44980;PMS5003;67464;52.438;-1.904;2023-04-01T02:31:35;17;14;
44980;PMS5003;67464;52.438;-1.904;2023-04-01T02:34:00;16;16;
44980;PMS5003;67464;52.438;-1.904;2023-04-01T02:36:25;19;18;
44980;PMS5003;67464;52.438;-1.904;2023-04-01T02:38:51;20;17;
44980;PMS5003;67464;52.438;-1.904;2023-04-01T02:41:16;18;18;
44980;PMS5003;67464;52.438;-1.904;2023-04-01T02:43:42;17;13;
44980;PMS5003;67464;52.438;-1.904;2023-04-01T02:46:08;20;14;
44980;PMS5003;67464;52.438;-1.904;2023-04-01T02:48:33;22;17;
44980;PMS5003;67464;52.438;-1.904;2023-04-01T02:50:59;17;13;
44980;PMS5003;67464;52.438;-1.904;2023-04-01T02:53:24;21;17;
44980;PMS5003;67464;52.438;-1.904;2023-04-01T02:55:49;16;13;
44980;PMS5003;67464;52.438;-1.904;2023-04-01T02:58:15;12;11;
44980;PMS5003;67464;52.438;-1.904;2023-04-01T03:00:40;11;11;
44980;PMS5003;67464;52.438;-1.904;2023-04-01T03:03:06;14;12;
44980;PMS5003;67464;52.438;-1.904;2023-04-01T03:05:31;10;9;
44980;PMS5003;67464;52.438;-1.904;2023-04-01T03:07:57;9;9;
44980;PMS5003;67464;52.438;-1.904;2023-04-01T03:10:23;9;8;
44980;PMS5003;67464;52.438;-1.904;2023-04-01T03:12:48;16;12;
44980;PMS5003;67464;52.438;-1.904;2023-04-01T03:15:14;10;8;
44980;PMS5003;67464;52.438;-1.904;2023-04-01T03:17:39;6;6;
44980;PMS5003;67464;52.438;-1.904;2023-04-01T03:20:05;8;8;
44980;PMS5003;67464;52.438;-1.904;2023-04-01T03:22:31;8;8;
44980;PMS5003;67464;52.438;-1.904;2023-04-01T03:24:56;7;7;
44980;PMS5003;67464;52.438;-1.904;2023-04-01T03:27:22;6;6;
44980;PMS5003;67464;52.438;-1.904;2023-04-01T03:29:48;7;7;
44980;PMS5003;67464;52.438;-1.904;2023-04-01T03:32:13;9;7;
44980;PMS5003;67464;52.438;-1.904;2023-04-01T03:34:39;7;7;
44980;PMS5003;67464;52.438;-1.904;2023-04-01T03:37:04;6;6;
44980;PMS5003;67464;52.438;-1.904;2023-04-01T03:39:30;9;8;
44980;PMS5003;67464;52.438;-1.904;2023-04-01T03:41:56;7;7;
44980;PMS5003;67464;52.438;-1.904;2023-04-01T03:44:21;7;7;
44980;PMS5003;67464;52.438;-1.904;2023-04-01T03:46:47;8;8;
44980;PMS5003;67464;52.438;-1.904;2023-04-01T03:49:12;9;7;
44980;PMS5003;67464;52.438;-1.904;2023-04-01T03:51:38;4;4;
44980;PMS5003;67464;52.438;-1.904;2023-04-01T03:54:04;8;8;
44980;PMS5003;67464;52.438;-1.904;2023-04-01T03:56:29;8;8;
44980;PMS5003;67464;52.438;-1.904;2023-04-01T03:58:55;7;7;
44980;PMS5003;67464;52.438;-1.904;2023-04-01T04:01:21;7;7;
44980;PMS5003;67464;52.438;-1.904;2023-04-01T04:03:47;7;7;
44980;PMS5003;67464;52.438;-1.904;2023-04-01T04:06:13;7;6;
44980;PMS5003;67464;52.438;-1.904;2023-04-01T04:08:38;6;4;
44980;PMS5003;67464;52.438;-1.904;2023-04-01T04:11:03;8;8;
44980;PMS5003;67464;52.438;-1.904;2023-04-01T04:13:29;5;5;
44980;PMS5003;67464;52.438;-1.904;2023-04-01T04:15:55;4;4;
44980;PMS5003;67464;52.438;-1.904;2023-04-01T04:18:21;8;8;
44980;PMS5003;67464;52.438;-1.904;2023-04-01T04:20:46;8;8;
44980;PMS5003;67464;52.438;-1.904;2023-04-01T04:23:11;8;6;
44980;PMS5003;67464;52.438;-1.904;2023-04-01T04:25:36;5;5;
44980;PMS5003;67464;52.438;-1.904;2023-04-01T04:28:02;6;6;
44980;PMS5003;67464;52.438;-1.904;2023-04-01T04:30:28;7;7;
44980;PMS5003;67464;52.438;-1.904;2023-04-01T04:32:53;10;7;
44980;PMS5003;67464;52.438;-1.904;2023-04-01T04:35:19;8;8;
44980;PMS5003;67464;52.438;-1.904;2023-04-01T04:37:45;6;6;
44980;PMS5003;67464;52.438;-1.904;2023-04-01T04:40:11;7;7;
44980;PMS5003;67464;52.438;-1.904;2023-04-01T04:42:36;10;8;
44980;PMS5003;67464;52.438;-1.904;2023-04-01T04:45:02;9;9;
44980;PMS5003;67464;52.438;-1.904;2023-04-01T04:47:28;10;8;
44980;PMS5003;67464;52.438;-1.904;2023-04-01T04:49:54;10;8;
44980;PMS5003;67464;52.438;-1.904;2023-04-01T04:52:19;7;6;
44980;PMS5003;67464;52.438;-1.904;2023-04-01T04:54:44;6;6;
44980;PMS5003;67464;52.438;-1.904;2023-04-01T04:57:10;7;7;
44980;PMS5003;67464;52.438;-1.904;2023-04-01T04:59:35;6;6;
44980;PMS5003;67464;52.438;-1.904;2023-04-01T05:02:01;7;7;
44980;PMS5003;67464;52.438;-1.904;2023-04-01T05:04:26;6;6;
44980;PMS5003;67464;52.438;-1.904;2023-04-01T05:06:52;7;7;
44980;PMS5003;67464;52.438;-1.904;2023-04-01T05:09:18;9;8;
44980;PMS5003;67464;52.438;-1.904;2023-04-01T05:11:43;13;10;
44980;PMS5003;67464;52.438;-1.904;2023-04-01T05:14:11;8;8;
44980;PMS5003;67464;52.438;-1.904;2023-04-01T05:16:35;5;5;
44980;PMS5003;67464;52.438;-1.904;2023-04-01T05:19:00;8;8;
44980;PMS5003;67464;52.438;-1.904;2023-04-01T05:21:26;8;8;
44980;PMS5003;67464;52.438;-1.904;2023-04-01T05:23:52;8;7;
44980;PMS5003;67464;52.438;-1.904;2023-04-01T05:26:17;11;9;
44980;PMS5003;67464;52.438;-1.904;2023-04-01T05:28:43;7;7;
44980;PMS5003;67464;52.438;-1.904;2023-04-01T05:31:09;10;9;
44980;PMS5003;67464;52.438;-1.904;2023-04-01T05:33:34;9;8;
44980;PMS5003;67464;52.438;-1.904;2023-04-01T05:38:25;11;9;
44980;PMS5003;67464;52.438;-1.904;2023-04-01T05:40:50;11;9;
44980;PMS5003;67464;52.438;-1.904;2023-04-01T05:43:16;16;10;
44980;PMS5003;67464;52.438;-1.904;2023-04-01T05:45:42;13;9;
44980;PMS5003;67464;52.438;-1.904;2023-04-01T05:48:07;10;10;
44980;PMS5003;67464;52.438;-1.904;2023-04-01T05:50:33;10;10;
44980;PMS5003;67464;52.438;-1.904;2023-04-01T05:52:59;14;10;
44980;PMS5003;67464;52.438;-1.904;2023-04-01T05:55:24;10;10;
44980;PMS5003;67464;52.438;-1.904;2023-04-01T05:57:50;9;9;
44980;PMS5003;67464;52.438;-1.904;2023-04-01T06:00:16;10;9;
44980;PMS5003;67464;52.438;-1.904;2023-04-01T06:02:41;10;8;
44980;PMS5003;67464;52.438;-1.904;2023-04-01T06:05:12;12;12;
44980;PMS5003;67464;52.438;-1.904;2023-04-01T06:07:32;12;9;
44980;PMS5003;67464;52.438;-1.904;2023-04-01T06:09:58;8;8;
44980;PMS5003;67464;52.438;-1.904;2023-04-01T06:12:28;10;8;
44980;PMS5003;67464;52.438;-1.904;2023-04-01T06:14:50;10;9;
44980;PMS5003;67464;52.438;-1.904;2023-04-01T06:17:18;15;12;
44980;PMS5003;67464;52.438;-1.904;2023-04-01T06:19:40;10;10;
44980;PMS5003;67464;52.438;-1.904;2023-04-01T06:22:09;10;10;
44980;PMS5003;67464;52.438;-1.904;2023-04-01T06:24:35;9;9;
44980;PMS5003;67464;52.438;-1.904;2023-04-01T06:26:57;14;13;
44980;PMS5003;67464;52.438;-1.904;2023-04-01T06:29:25;15;13;
44980;PMS5003;67464;52.438;-1.904;2023-04-01T06:31:55;8;6;
44980;PMS5003;67464;52.438;-1.904;2023-04-01T06:34:18;13;13;
44980;PMS5003;67464;52.438;-1.904;2023-04-01T06:36:42;8;8;
44980;PMS5003;67464;52.438;-1.904;2023-04-01T06:39:07;9;9;
44980;PMS5003;67464;52.438;-1.904;2023-04-01T06:41:33;13;10;
44980;PMS5003;67464;52.438;-1.904;2023-04-01T06:43:57;12;10;
44980;PMS5003;67464;52.438;-1.904;2023-04-01T06:46:23;18;13;
44980;PMS5003;67464;52.438;-1.904;2023-04-01T06:48:53;14;10;
44980;PMS5003;67464;52.438;-1.904;2023-04-01T06:51:16;14;14;
44980;PMS5003;67464;52.438;-1.904;2023-04-01T06:53:39;9;9;
44980;PMS5003;67464;52.438;-1.904;2023-04-01T06:56:05;7;7;
44980;PMS5003;67464;52.438;-1.904;2023-04-01T06:58:30;9;8;
44980;PMS5003;67464;52.438;-1.904;2023-04-01T07:00:56;7;7;
44980;PMS5003;67464;52.438;-1.904;2023-04-01T07:03:22;16;15;
44980;PMS5003;67464;52.438;-1.904;2023-04-01T07:05:46;10;10;
44980;PMS5003;67464;52.438;-1.904;2023-04-01T07:08:13;9;9;
44980;PMS5003;67464;52.438;-1.904;2023-04-01T07:10:41;11;9;
44980;PMS5003;67464;52.438;-1.904;2023-04-01T07:13:04;11;10;
44980;PMS5003;67464;52.438;-1.904;2023-04-01T07:15:30;9;9;
44980;PMS5003;67464;52.438;-1.904;2023-04-01T07:17:55;8;7;
44980;PMS5003;67464;52.438;-1.904;2023-04-01T07:20:22;8;8;
44980;PMS5003;67464;52.438;-1.904;2023-04-01T07:22:47;15;14;
44980;PMS5003;67464;52.438;-1.904;2023-04-01T07:25:13;12;12;
44980;PMS5003;67464;52.438;-1.904;2023-04-01T07:27:37;8;8;
44980;PMS5003;67464;52.438;-1.904;2023-04-01T07:30:06;8;8;
44980;PMS5003;67464;52.438;-1.904;2023-04-01T07:32:32;8;7;
44980;PMS5003;67464;52.438;-1.904;2023-04-01T07:34:59;12;12;
44980;PMS5003;67464;52.438;-1.904;2023-04-01T07:37:21;13;11;
44980;PMS5003;67464;52.438;-1.904;2023-04-01T07:39:47;9;7;
44980;PMS5003;67464;52.438;-1.904;2023-04-01T07:42:14;9;9;
44980;PMS5003;67464;52.438;-1.904;2023-04-01T07:44:38;9;8;
44980;PMS5003;67464;52.438;-1.904;2023-04-01T07:47:06;7;7;
44980;PMS5003;67464;52.438;-1.904;2023-04-01T07:49:30;10;9;
44980;PMS5003;67464;52.438;-1.904;2023-04-01T07:51:55;9;8;
44980;PMS5003;67464;52.438;-1.904;2023-04-01T07:54:21;7;5;
44980;PMS5003;67464;52.438;-1.904;2023-04-01T07:56:46;8;8;
44980;PMS5003;67464;52.438;-1.904;2023-04-01T07:59:12;8;7;
44980;PMS5003;67464;52.438;-1.904;2023-04-01T08:01:39;6;5;
44980;PMS5003;67464;52.438;-1.904;2023-04-01T08:04:07;9;6;
44980;PMS5003;67464;52.438;-1.904;2023-04-01T08:06:28;5;5;
44980;PMS5003;67464;52.438;-1.904;2023-04-01T08:08:56;9;7;
44980;PMS5003;67464;52.438;-1.904;2023-04-01T08:11:23;8;6;
44980;PMS5003;67464;52.438;-1.904;2023-04-01T08:13:46;8;8;
44980;PMS5003;67464;52.438;-1.904;2023-04-01T08:16:12;7;5;
44980;PMS5003;67464;52.438;-1.904;2023-04-01T08:18:38;8;8;
44980;PMS5003;67464;52.438;-1.904;2023-04-01T08:21:03;6;6;
44980;PMS5003;67464;52.438;-1.904;2023-04-01T08:23:30;7;7;
44980;PMS5003;67464;52.438;-1.904;2023-04-01T08:25:56;6;6;
44980;PMS5003;67464;52.438;-1.904;2023-04-01T08:28:21;8;8;
44980;PMS5003;67464;52.438;-1.904;2023-04-01T08:30:47;4;4;
44980;PMS5003;67464;52.438;-1.904;2023-04-01T08:33:13;5;5;
44980;PMS5003;67464;52.438;-1.904;2023-04-01T08:35:37;4;4;
44980;PMS5003;67464;52.438;-1.904;2023-04-01T08:38:04;4;4;
44980;PMS5003;67464;52.438;-1.904;2023-04-01T08:40:36;7;7;
44980;PMS5003;67464;52.438;-1.904;2023-04-01T08:42:57;6;5;
44980;PMS5003;67464;52.438;-1.904;2023-04-01T08:45:22;5;5;
44980;PMS5003;67464;52.438;-1.904;2023-04-01T08:47:46;7;6;
44980;PMS5003;67464;52.438;-1.904;2023-04-01T08:52:36;5;5;
44980;PMS5003;67464;52.438;-1.904;2023-04-01T08:57:33;5;5;
44980;PMS5003;67464;52.438;-1.904;2023-04-01T08:59:56;4;4;
44980;PMS5003;67464;52.438;-1.904;2023-04-01T09:02:24;6;6;
44980;PMS5003;67464;52.438;-1.904;2023-04-01T09:04:50;4;4;
44980;PMS5003;67464;52.438;-1.904;2023-04-01T09:07:14;7;6;
44980;PMS5003;67464;52.438;-1.904;2023-04-01T09:12:07;4;4;
44980;PMS5003;67464;52.438;-1.904;2023-04-01T09:14:33;3;3;
44980;PMS5003;67464;52.438;-1.904;2023-04-01T09:17:01;4;4;
44980;PMS5003;67464;52.438;-1.904;2023-04-01T09:19:21;2;2;
44980;PMS5003;67464;52.438;-1.904;2023-04-01T09:21:49;3;3;
44980;PMS5003;67464;52.438;-1.904;2023-04-01T09:24:18;4;4;
44980;PMS5003;67464;52.438;-1.904;2023-04-01T09:26:42;4;4;
44980;PMS5003;67464;52.438;-1.904;2023-04-01T09:29:03;4;4;
44980;PMS5003;67464;52.438;-1.904;2023-04-01T09:31:39;4;4;
44980;PMS5003;67464;52.438;-1.904;2023-04-01T09:36:22;3;3;
44980;PMS5003;67464;52.438;-1.904;2023-04-01T09:38:48;2;2;
44980;PMS5003;67464;52.438;-1.904;2023-04-01T09:41:12;4;4;
44980;PMS5003;67464;52.438;-1.904;2023-04-01T09:43:40;4;4;
44980;PMS5003;67464;52.438;-1.904;2023-04-01T09:46:06;2;2;
44980;PMS5003;67464;52.438;-1.904;2023-04-01T09:48:31;2;2;
44980;PMS5003;67464;52.438;-1.904;2023-04-01T09:50:55;3;3;
44980;PMS5003;67464;52.438;-1.904;2023-04-01T09:53:24;42;42;
44980;PMS5003;67464;52.438;-1.904;2023-04-01T10:03:07;3;3;
44980;PMS5003;67464;52.438;-1.904;2023-04-01T10:07:56;4;4;
44980;PMS5003;67464;52.438;-1.904;2023-04-01T10:10:24;4;4;
44980;PMS5003;67464;52.438;-1.904;2023-04-01T10:12:56;5;3;
44980;PMS5003;67464;52.438;-1.904;2023-04-01T10:15:15;4;3;
44980;PMS5003;67464;52.438;-1.904;2023-04-01T10:20:02;5;5;
44980;PMS5003;67464;52.438;-1.904;2023-04-01T10:24:54;4;4;
44980;PMS5003;67464;52.438;-1.904;2023-04-01T10:27:21;4;4;
44980;PMS5003;67464;52.438;-1.904;2023-04-01T10:32:18;5;3;
44980;PMS5003;67464;52.438;-1.904;2023-04-01T10:36:59;2;2;
44980;PMS5003;67464;52.438;-1.904;2023-04-01T10:39:32;3;3;
44980;PMS5003;67464;52.438;-1.904;2023-04-01T10:41:57;5;3;
44980;PMS5003;67464;52.438;-1.904;2023-04-01T10:44:28;3;3;
44980;PMS5003;67464;52.438;-1.904;2023-04-01T10:54:03;3;3;
44980;PMS5003;67464;52.438;-1.904;2023-04-01T10:58:55;4;4;
44980;PMS5003;67464;52.438;-1.904;2023-04-01T11:13:35;4;4;
44980;PMS5003;67464;52.438;-1.904;2023-04-01T11:18:18;5;5;
44980;PMS5003;67464;52.438;-1.904;2023-04-01T11:23:09;2;2;
44980;PMS5003;67464;52.438;-1.904;2023-04-01T11:28:01;2;2;
44980;PMS5003;67464;52.438;-1.904;2023-04-01T11:30:22;2;2;
44980;PMS5003;67464;52.438;-1.904;2023-04-01T11:32:48;3;3;
44980;PMS5003;67464;52.438;-1.904;2023-04-01T11:35:22;3;3;
44980;PMS5003;67464;52.438;-1.904;2023-04-01T11:37:38;1;1;
44980;PMS5003;67464;52.438;-1.904;2023-04-01T11:40:06;3;3;
44980;PMS5003;67464;52.438;-1.904;2023-04-01T11:42:30;4;4;
44980;PMS5003;67464;52.438;-1.904;2023-04-01T11:44:57;2;2;
44980;PMS5003;67464;52.438;-1.904;2023-04-01T11:47:24;1;1;
44980;PMS5003;67464;52.438;-1.904;2023-04-01T11:49:49;4;4;
44980;PMS5003;67464;52.438;-1.904;2023-04-01T11:52:15;4;4;
44980;PMS5003;67464;52.438;-1.904;2023-04-01T11:54:40;3;3;
44980;PMS5003;67464;52.438;-1.904;2023-04-01T11:57:06;4;4;
44980;PMS5003;67464;52.438;-1.904;2023-04-01T11:59:30;5;3;
44980;PMS5003;67464;52.438;-1.904;2023-04-01T12:01:54;3;3;
44980;PMS5003;67464;52.438;-1.904;2023-04-01T12:04:27;4;4;
44980;PMS5003;67464;52.438;-1.904;2023-04-01T12:06:44;3;3;
44980;PMS5003;67464;52.438;-1.904;2023-04-01T12:09:10;2;2;
44980;PMS5003;67464;52.438;-1.904;2023-04-01T12:11:35;1;1;
44980;PMS5003;67464;52.438;-1.904;2023-04-01T12:14:02;4;4;
44980;PMS5003;67464;52.438;-1.904;2023-04-01T12:16:28;4;3;
44980;PMS5003;67464;52.438;-1.904;2023-04-01T12:18:52;4;4;
44980;PMS5003;67464;52.438;-1.904;2023-04-01T12:21:18;3;3;
44980;PMS5003;67464;52.438;-1.904;2023-04-01T12:23:48;3;3;
44980;PMS5003;67464;52.438;-1.904;2023-04-01T12:28:36;3;3;
44980;PMS5003;67464;52.438;-1.904;2023-04-01T12:31:01;5;5;
44980;PMS5003;67464;52.438;-1.904;2023-04-01T12:33:26;3;3;
44980;PMS5003;67464;52.438;-1.904;2023-04-01T12:35:53;6;4;
44980;PMS5003;67464;52.438;-1.904;2023-04-01T12:38:17;6;5;
44980;PMS5003;67464;52.438;-1.904;2023-04-01T12:40:45;8;7;
44980;PMS5003;67464;52.438;-1.904;2023-04-01T12:43:11;5;5;
44980;PMS5003;67464;52.438;-1.904;2023-04-01T12:45:31;6;6;
44980;PMS5003;67464;52.438;-1.904;2023-04-01T12:48:02;7;5;
44980;PMS5003;67464;52.438;-1.904;2023-04-01T12:50:25;6;6;
44980;PMS5003;67464;52.438;-1.904;2023-04-01T12:52:51;6;6;
44980;PMS5003;67464;52.438;-1.904;2023-04-01T12:55:18;7;7;
44980;PMS5003;67464;52.438;-1.904;2023-04-01T12:57:43;6;6;
44980;PMS5003;67464;52.438;-1.904;2023-04-01T13:00:12;6;6;
44980;PMS5003;67464;52.438;-1.904;2023-04-01T13:02:35;7;7;
44980;PMS5003;67464;52.438;-1.904;2023-04-01T13:05:01;8;8;
44980;PMS5003;67464;52.438;-1.904;2023-04-01T13:07:30;7;7;
44980;PMS5003;67464;52.438;-1.904;2023-04-01T13:09:49;6;6;
44980;PMS5003;67464;52.438;-1.904;2023-04-01T13:12:22;8;7;
44980;PMS5003;67464;52.438;-1.904;2023-04-01T13:17:06;7;7;
44980;PMS5003;67464;52.438;-1.904;2023-04-01T13:19:30;6;4;
44980;PMS5003;67464;52.438;-1.904;2023-04-01T13:21:56;5;5;
44980;PMS5003;67464;52.438;-1.904;2023-04-01T13:24:24;5;5;
44980;PMS5003;67464;52.438;-1.904;2023-04-01T13:26:48;3;3;
44980;PMS5003;67464;52.438;-1.904;2023-04-01T13:29:12;3;3;
44980;PMS5003;67464;52.438;-1.904;2023-04-01T13:31:38;3;3;
44980;PMS5003;67464;52.438;-1.904;2023-04-01T13:34:06;4;4;
44980;PMS5003;67464;52.438;-1.904;2023-04-01T13:36:28;4;4;
44980;PMS5003;67464;52.438;-1.904;2023-04-01T13:38:58;3;3;
44980;PMS5003;67464;52.438;-1.904;2023-04-01T13:41:22;4;4;
44980;PMS5003;67464;52.438;-1.904;2023-04-01T13:43:45;3;3;
44980;PMS5003;67464;52.438;-1.904;2023-04-01T13:46:17;3;3;
44980;PMS5003;67464;52.438;-1.904;2023-04-01T13:48:40;4;4;
44980;PMS5003;67464;52.438;-1.904;2023-04-01T13:51:05;4;4;
44980;PMS5003;67464;52.438;-1.904;2023-04-01T13:53:31;3;3;
44980;PMS5003;67464;52.438;-1.904;2023-04-01T13:55:54;3;3;
44980;PMS5003;67464;52.438;-1.904;2023-04-01T13:58:22;3;3;
44980;PMS5003;67464;52.438;-1.904;2023-04-01T14:00:46;4;3;
44980;PMS5003;67464;52.438;-1.904;2023-04-01T14:03:13;5;5;
44980;PMS5003;67464;52.438;-1.904;2023-04-01T14:05:39;4;4;
44980;PMS5003;67464;52.438;-1.904;2023-04-01T14:08:04;5;5;
44980;PMS5003;67464;52.438;-1.904;2023-04-01T14:10:29;6;6;
44980;PMS5003;67464;52.438;-1.904;2023-04-01T14:12:56;4;4;
44980;PMS5003;67464;52.438;-1.904;2023-04-01T14:15:23;5;5;
44980;PMS5003;67464;52.438;-1.904;2023-04-01T14:17:46;7;6;
44980;PMS5003;67464;52.438;-1.904;2023-04-01T14:20:20;4;4;
44980;PMS5003;67464;52.438;-1.904;2023-04-01T14:22:37;4;4;
44980;PMS5003;67464;52.438;-1.904;2023-04-01T14:25:06;6;4;
44980;PMS5003;67464;52.438;-1.904;2023-04-01T14:27:29;6;4;
44980;PMS5003;67464;52.438;-1.904;2023-04-01T14:29:55;4;4;
44980;PMS5003;67464;52.438;-1.904;2023-04-01T14:32:18;4;3;
44980;PMS5003;67464;52.438;-1.904;2023-04-01T14:34:47;3;3;
44980;PMS5003;67464;52.438;-1.904;2023-04-01T14:37:11;4;4;
44980;PMS5003;67464;52.438;-1.904;2023-04-01T14:39:43;4;4;
44980;PMS5003;67464;52.438;-1.904;2023-04-01T14:42:03;3;3;
44980;PMS5003;67464;52.438;-1.904;2023-04-01T14:44:34;3;3;
44980;PMS5003;67464;52.438;-1.904;2023-04-01T14:49:17;7;5;
44980;PMS5003;67464;52.438;-1.904;2023-04-01T14:51:41;3;2;
44980;PMS5003;67464;52.438;-1.904;2023-04-01T14:54:08;4;4;
44980;PMS5003;67464;52.438;-1.904;2023-04-01T14:56:36;3;3;
44980;PMS5003;67464;52.438;-1.904;2023-04-01T14:58:58;2;2;
44980;PMS5003;67464;52.438;-1.904;2023-04-01T15:01:26;2;2;
44980;PMS5003;67464;52.438;-1.904;2023-04-01T15:03:51;2;2;
44980;PMS5003;67464;52.438;-1.904;2023-04-01T15:08:42;2;2;
44980;PMS5003;67464;52.438;-1.904;2023-04-01T15:11:13;2;2;
44980;PMS5003;67464;52.438;-1.904;2023-04-01T15:16:00;2;2;
44980;PMS5003;67464;52.438;-1.904;2023-04-01T15:18:25;2;2;
44980;PMS5003;67464;52.438;-1.904;2023-04-01T15:20:52;1;1;
44980;PMS5003;67464;52.438;-1.904;2023-04-01T15:23:18;1;1;
44980;PMS5003;67464;52.438;-1.904;2023-04-01T15:25:43;2;2;
44980;PMS5003;67464;52.438;-1.904;2023-04-01T15:28:07;2;2;
44980;PMS5003;67464;52.438;-1.904;2023-04-01T15:30:32;2;2;
44980;PMS5003;67464;52.438;-1.904;2023-04-01T15:33:01;3;2;
44980;PMS5003;67464;52.438;-1.904;2023-04-01T15:35:26;2;2;
44980;PMS5003;67464;52.438;-1.904;2023-04-01T15:37:50;4;3;
44980;PMS5003;67464;52.438;-1.904;2023-04-01T15:40:16;1;1;
44980;PMS5003;67464;52.438;-1.904;2023-04-01T15:42:43;2;2;
44980;PMS5003;67464;52.438;-1.904;2023-04-01T15:45:09;2;2;
44980;PMS5003;67464;52.438;-1.904;2023-04-01T15:47:33;2;2;
44980;PMS5003;67464;52.438;-1.904;2023-04-01T15:49:57;2;2;
44980;PMS5003;67464;52.438;-1.904;2023-04-01T15:52:22;1;1;
44980;PMS5003;67464;52.438;-1.904;2023-04-01T15:54:54;4;3;
44980;PMS5003;67464;52.438;-1.904;2023-04-01T15:57:15;1;1;
44980;PMS5003;67464;52.438;-1.904;2023-04-01T15:59:44;1;1;
44980;PMS5003;67464;52.438;-1.904;2023-04-01T16:02:07;1;1;
44980;PMS5003;67464;52.438;-1.904;2023-04-01T16:04:36;1;1;
44980;PMS5003;67464;52.438;-1.904;2023-04-01T16:06:59;1;1;
44980;PMS5003;67464;52.438;-1.904;2023-04-01T16:09:25;2;2;
44980;PMS5003;67464;52.438;-1.904;2023-04-01T16:11:48;1;1;
44980;PMS5003;67464;52.438;-1.904;2023-04-01T16:14:16;1;1;
44980;PMS5003;67464;52.438;-1.904;2023-04-01T16:16:44;1;1;
44980;PMS5003;67464;52.438;-1.904;2023-04-01T16:19:09;1;1;
44980;PMS5003;67464;52.438;-1.904;2023-04-01T16:21:35;3;3;
44980;PMS5003;67464;52.438;-1.904;2023-04-01T16:23:56;4;4;
44980;PMS5003;67464;52.438;-1.904;2023-04-01T16:26:22;3;3;
44980;PMS5003;67464;52.438;-1.904;2023-04-01T16:28:48;1;1;
44980;PMS5003;67464;52.438;-1.904;2023-04-01T16:31:13;1;1;
44980;PMS5003;67464;52.438;-1.904;2023-04-01T16:33:40;2;2;
44980;PMS5003;67464;52.438;-1.904;2023-04-01T16:36:07;2;2;
44980;PMS5003;67464;52.438;-1.904;2023-04-01T16:38:32;1;1;
44980;PMS5003;67464;52.438;-1.904;2023-04-01T16:41:00;1;1;
44980;PMS5003;67464;52.438;-1.904;2023-04-01T16:43:21;1;1;
44980;PMS5003;67464;52.438;-1.904;2023-04-01T16:45:46;4;4;
44980;PMS5003;67464;52.438;-1.904;2023-04-01T16:48:12;4;3;
44980;PMS5003;67464;52.438;-1.904;2023-04-01T16:50:42;3;3;
44980;PMS5003;67464;52.438;-1.904;2023-04-01T16:53:08;4;4;
44980;PMS5003;67464;52.438;-1.904;2023-04-01T16:57:56;8;8;
44980;PMS5003;67464;52.438;-1.904;2023-04-01T17:00:24;6;4;
44980;PMS5003;67464;52.438;-1.904;2023-04-01T17:02:47;3;3;
44980;PMS5003;67464;52.438;-1.904;2023-04-01T17:05:11;2;2;
44980;PMS5003;67464;52.438;-1.904;2023-04-01T17:07:40;1;1;
44980;PMS5003;67464;52.438;-1.904;2023-04-01T17:10:06;2;2;
44980;PMS5003;67464;52.438;-1.904;2023-04-01T17:12:29;2;2;
44980;PMS5003;67464;52.438;-1.904;2023-04-01T17:14:55;2;2;
44980;PMS5003;67464;52.438;-1.904;2023-04-01T17:17:23;2;2;
44980;PMS5003;67464;52.438;-1.904;2023-04-01T17:19:49;2;2;
44980;PMS5003;67464;52.438;-1.904;2023-04-01T17:22:13;1;1;
44980;PMS5003;67464;52.438;-1.904;2023-04-01T17:24:41;2;2;
44980;PMS5003;67464;52.438;-1.904;2023-04-01T17:27:04;1;1;
44980;PMS5003;67464;52.438;-1.904;2023-04-01T17:29:29;2;2;
44980;PMS5003;67464;52.438;-1.904;2023-04-01T17:31:54;2;2;